Time;durP1;ratioP1;P1;durP2;ratioP2;P2;SDS_P1;SDS_P2;PMS_P1;PMS_P2;Temp;Humidity;BMP_temperature;BMP_pressure;BME280_temperature;BME280_humidity;BME280_pressure;Samples;Min_cycle;Max_cycle;Signal;HPM_P1;HPM_P2
2021/08/13 00:00:14;;;;;;;;;;;;;;;12.76;86.37;98795.80;1743900;82;20134;-78
2021/08/13 00:02:41;;;;;;;;;;;;;;;12.68;86.18;98789.01;1738751;81;20120;-78
2021/08/13 00:05:08;;;;;;;;;;;;;;;12.65;86.02;98792.29;1739228;81;20225;-78
2021/08/13 00:07:33;;;;;;;;;;;;;;;12.56;85.98;98793.09;1738910;81;20159;-74
2021/08/13 00:09:59;;;;;;;;;;;;;;;12.50;85.92;98796.92;1739259;81;20221;-74
2021/08/13 00:12:25;;;;;;;;;;;;;;;12.45;85.85;98803.71;1738976;82;20190;-78
2021/08/13 00:14:50;;;;;;;;;;;;;;;12.37;86.16;98800.98;1739216;81;21939;-78
2021/08/13 00:17:16;;;;;;;;;;;;;;;12.29;87.00;98801.53;1738919;82;20265;-75
2021/08/13 00:19:42;;;;;;;;;;;;;;;12.20;87.49;98801.26;1718348;82;20173;-78
2021/08/13 00:22:08;;;;;;;;;;;;;;;12.16;87.35;98799.38;1738947;81;20150;-78
2021/08/13 00:24:33;;;;;;;;;;;;;;;12.10;86.95;98799.36;1738924;81;20162;-78
2021/08/13 00:26:59;;;;;;;;;;;;;;;12.10;88.41;98803.44;1739047;81;21077;-78
2021/08/13 00:29:25;;;;;;;;;;;;;;;12.16;88.96;98804.27;1738746;81;20252;-75
2021/08/13 00:31:51;;;;;;;;;;;;;;;12.21;89.08;98805.61;1739090;82;20187;-75
2021/08/13 00:34:16;;;;;;;;;;;;;;;12.27;87.52;98800.45;1738852;81;20122;-75
2021/08/13 00:36:42;;;;;;;;;;;;;;;12.30;89.04;98800.44;1739160;81;20229;-78
2021/08/13 00:39:08;;;;;;;;;;;;;;;12.36;86.37;98798.82;1738995;81;21097;-75
2021/08/13 00:41:34;;;;;;;;;;;;;;;12.34;88.44;98794.20;1738922;82;20247;-78
2021/08/13 00:43:59;;;;;;;;;;;;;;;12.38;88.48;98789.03;1738812;81;20174;-78
2021/08/13 00:46:25;;;;;;;;;;;;;;;12.41;87.77;98796.11;1739001;82;20142;-74
2021/08/13 00:48:51;;;;;;;;;;;;;;;12.42;87.70;98798.28;1738872;82;20230;-75
2021/08/13 00:51:17;;;;;;;;;;;;;;;12.37;88.11;98800.98;1739108;82;21090;-78
2021/08/13 00:53:42;;;;;;;;;;;;;;;12.34;88.23;98801.00;1738793;82;20174;-74
2021/08/13 00:56:08;;;;;;;;;;;;;;;12.35;87.74;98794.47;1745323;82;20176;-78
2021/08/13 00:58:34;;;;;;;;;;;;;;;12.37;87.81;98798.27;1748728;82;20158;-78
2021/08/13 01:01:00;;;;;;;;;;;;;;;12.37;87.22;98797.73;1749345;81;20777;-75
2021/08/13 01:03:25;;;;;;;;;;;;;;;12.35;86.96;98792.30;1739743;81;21765;-78
2021/08/13 01:05:51;;;;;;;;;;;;;;;12.31;86.76;98793.95;1738969;82;20197;-78
2021/08/13 01:08:17;;;;;;;;;;;;;;;12.27;86.54;98794.20;1738887;82;20237;-78
2021/08/13 01:11:01;;;;;;;;;;;;;;;12.17;87.49;98792.30;1739168;81;20197;-78
2021/08/13 01:13:37;;;;;;;;;;;;;;;12.15;87.48;98789.05;1730081;82;20144;-77
2021/08/13 01:16:02;;;;;;;;;;;;;;;12.13;87.25;98796.13;1731721;82;21056;-74
2021/08/13 01:18:33;;;;;;;;;;;;;;;12.11;87.15;98805.06;1717892;82;20124;-73
2021/08/13 01:21:18;;;;;;;;;;;;;;;12.00;87.87;98789.84;1738938;81;20162;-78
2021/08/13 01:23:47;;;;;;;;;;;;;;;11.92;88.23;98788.20;1738817;81;20128;-73
2021/08/13 01:26:12;;;;;;;;;;;;;;;11.90;87.93;98787.67;1738976;81;20104;-74
2021/08/13 01:29:04;;;;;;;;;;;;;;;11.88;87.99;98796.09;1738852;82;21121;-74
2021/08/13 01:31:33;;;;;;;;;;;;;;;11.84;88.36;98791.72;1738845;81;20431;-78
2021/08/13 01:34:02;;;;;;;;;;;;;;;11.78;88.10;98787.87;1717047;82;20176;-74
2021/08/13 01:36:28;;;;;;;;;;;;;;;11.73;88.03;98787.88;1739051;82;20143;-78
2021/08/13 01:38:54;;;;;;;;;;;;;;;11.68;89.36;98793.28;1738905;82;20132;-78
2021/08/13 01:41:20;;;;;;;;;;;;;;;11.78;89.36;98787.87;1739168;81;21144;-74
2021/08/13 01:43:45;;;;;;;;;;;;;;;11.78;90.25;98783.25;1738591;81;20678;-74
2021/08/13 01:46:12;;;;;;;;;;;;;;;11.83;89.90;98779.23;1739022;81;20296;-74
2021/08/13 01:48:38;;;;;;;;;;;;;;;11.89;89.48;98780.06;1738720;82;20410;-78
2021/08/13 01:51:04;;;;;;;;;;;;;;;11.91;89.28;98780.60;1739125;81;20178;-75
2021/08/13 01:53:29;;;;;;;;;;;;;;;11.94;89.03;98783.31;1717640;82;21101;-78
2021/08/13 01:55:55;;;;;;;;;;;;;;;11.90;88.19;98784.95;1738685;81;20170;-74
2021/08/13 01:58:21;;;;;;;;;;;;;;;11.88;88.67;98785.73;1732752;81;20186;-74
2021/08/13 02:00:47;;;;;;;;;;;;;;;11.92;88.63;98789.02;1731135;82;20174;-74
2021/08/13 02:03:13;;;;;;;;;;;;;;;11.94;88.99;98788.20;1730902;82;20131;-78
2021/08/13 02:05:38;;;;;;;;;;;;;;;11.99;88.47;98786.86;1720056;83;21089;-82
2021/08/13 02:08:06;;;;;;;;;;;;;;;12.01;88.08;98785.23;1718915;82;20190;-83
2021/08/13 02:10:32;;;;;;;;;;;;;;;12.04;87.55;98786.03;1706344;83;20187;-82
2021/08/13 02:12:58;;;;;;;;;;;;;;;12.03;86.98;98795.27;1730406;82;20140;-82
2021/08/13 02:15:24;;;;;;;;;;;;;;;11.98;86.66;98778.45;1717378;82;20157;-82
2021/08/13 02:18:02;;;;;;;;;;;;;;;11.90;87.02;98780.87;1705183;83;21144;-72
2021/08/13 02:20:28;;;;;;;;;;;;;;;11.85;86.49;98783.03;1696892;84;20130;-72
2021/08/13 02:22:54;;;;;;;;;;;;;;;11.72;86.69;98782.17;1710592;83;20257;-71
2021/08/13 02:25:20;;;;;;;;;;;;;;;11.64;86.05;98779.98;1721198;82;20181;-72
2021/08/13 02:27:46;;;;;;;;;;;;;;;11.56;86.97;98777.25;1684987;83;20214;-86
2021/08/13 02:30:12;;;;;;;;;;;;;;;11.48;87.43;98787.27;1731049;82;21518;-74
2021/08/13 02:32:38;;;;;;;;;;;;;;;11.42;87.06;98782.89;1719086;82;20135;-74
2021/08/13 02:35:04;;;;;;;;;;;;;;;11.34;88.20;98789.65;1721891;83;20182;-78
2021/08/13 02:37:39;;;;;;;;;;;;;;;11.31;88.95;98786.12;1708957;83;20243;-75
2021/08/13 02:40:13;;;;;;;;;;;;;;;11.31;88.86;98796.97;1711660;83;20148;-74
2021/08/13 02:42:46;;;;;;;;;;;;;;;11.33;89.25;98792.09;1701368;83;21007;-73
2021/08/13 02:45:13;;;;;;;;;;;;;;;11.36;89.66;98788.02;1701431;83;20445;-75
2021/08/13 02:47:39;;;;;;;;;;;;;;;11.37;87.72;98786.42;1701566;83;20134;-74
2021/08/13 02:50:07;;;;;;;;;;;;;;;11.32;88.13;98783.68;1708584;83;20742;-76
2021/08/13 02:52:39;;;;;;;;;;;;;;;11.27;88.24;98784.46;1730822;82;20140;-75
2021/08/13 02:55:05;;;;;;;;;;;;;;;11.29;87.77;98782.86;1732235;82;21131;-79
2021/08/13 02:57:33;;;;;;;;;;;;;;;11.24;87.57;98783.64;1743365;82;20186;-74
2021/08/13 03:00:01;;;;;;;;;;;;;;;11.24;87.60;98790.43;1739001;82;20429;-79
2021/08/13 03:02:26;;;;;;;;;;;;;;;11.27;87.40;98781.75;1738943;81;20128;-78
2021/08/13 03:04:52;;;;;;;;;;;;;;;11.29;87.68;98783.68;1737546;82;20225;-80
2021/08/13 03:07:19;;;;;;;;;;;;;;;11.30;87.30;98777.71;1737865;81;21145;-80
2021/08/13 03:09:44;;;;;;;;;;;;;;;11.28;87.58;98788.84;1739070;82;20449;-75
2021/08/13 03:12:11;;;;;;;;;;;;;;;11.28;88.45;98786.66;1739049;82;20736;-74
2021/08/13 03:14:36;;;;;;;;;;;;;;;11.29;86.41;98778.80;1738662;82;20183;-79
2021/08/13 03:17:02;;;;;;;;;;;;;;;11.23;86.45;98778.49;1738604;81;20178;-79
2021/08/13 03:19:28;;;;;;;;;;;;;;;11.18;86.92;98773.84;1739008;81;21120;-74
2021/08/13 03:21:54;;;;;;;;;;;;;;;11.17;88.57;98782.25;1738978;81;20730;-79
2021/08/13 03:24:20;;;;;;;;;;;;;;;11.20;88.03;98778.48;1738742;81;20297;-80
2021/08/13 03:26:46;;;;;;;;;;;;;;;11.21;88.79;98770.62;1739053;82;20134;-79
2021/08/13 03:29:12;;;;;;;;;;;;;;;11.25;89.11;98776.32;1738890;81;20144;-78
2021/08/13 03:31:45;;;;;;;;;;;;;;;11.25;88.77;98779.84;1739260;81;21045;-79
2021/08/13 03:34:11;;;;;;;;;;;;;;;11.25;87.80;98781.20;1738715;81;20167;-78
2021/08/13 03:36:37;;;;;;;;;;;;;;;11.18;87.78;98784.70;1739100;81;20139;-73
2021/08/13 03:39:05;;;;;;;;;;;;;;;11.11;87.84;98788.73;1738919;81;20163;-73
2021/08/13 03:41:31;;;;;;;;;;;;;;;11.05;88.24;98791.98;1738377;81;20176;-74
2021/08/13 03:43:57;;;;;;;;;;;;;;;11.06;87.96;98787.37;1738859;82;21025;-79
2021/08/13 03:46:23;;;;;;;;;;;;;;;11.07;87.65;98790.35;1739112;81;20249;-79
2021/08/13 03:48:49;;;;;;;;;;;;;;;11.13;87.94;98792.83;1738819;81;20182;-79
2021/08/13 03:51:14;;;;;;;;;;;;;;;11.20;87.86;98790.70;1739199;81;20146;-79
2021/08/13 03:53:40;;;;;;;;;;;;;;;11.26;88.19;98790.16;1738856;81;20284;-74
2021/08/13 03:56:06;;;;;;;;;;;;;;;11.37;88.00;98790.50;1740989;82;21116;-74
2021/08/13 03:58:32;;;;;;;;;;;;;;;11.47;88.10;98786.45;1744346;82;20729;-79
2021/08/13 04:00:57;;;;;;;;;;;;;;;11.52;87.98;98786.99;1743915;82;20217;-74
2021/08/13 04:03:23;;;;;;;;;;;;;;;11.63;87.62;98785.95;1739638;82;20181;-76
2021/08/13 04:05:49;;;;;;;;;;;;;;;11.71;87.55;98782.72;1739085;81;20312;-75
2021/08/13 04:08:15;;;;;;;;;;;;;;;11.80;87.20;98785.75;1738987;81;21148;-74
2021/08/13 04:10:40;;;;;;;;;;;;;;;11.85;87.20;98783.03;1739197;81;20174;-79
2021/08/13 04:13:06;;;;;;;;;;;;;;;11.96;86.52;98777.88;1739068;81;20266;-74
2021/08/13 04:15:33;;;;;;;;;;;;;;;12.03;85.92;98780.33;1739018;81;20448;-74
2021/08/13 04:17:59;;;;;;;;;;;;;;;12.04;86.35;98777.88;1738879;81;20439;-74
2021/08/13 04:20:24;;;;;;;;;;;;;;;12.08;86.92;98779.80;1739000;81;21137;-79
2021/08/13 04:22:50;;;;;;;;;;;;;;;12.11;86.86;98779.80;1738990;81;20193;-79
2021/08/13 04:25:16;;;;;;;;;;;;;;;12.16;87.14;98777.09;1739057;81;20228;-80
2021/08/13 04:27:41;;;;;;;;;;;;;;;12.27;86.34;98780.62;1738892;81;20189;-75
2021/08/13 04:30:08;;;;;;;;;;;;;;;12.27;85.53;98773.28;1739193;81;20162;-74
2021/08/13 04:32:37;;;;;;;;;;;;;;;12.31;85.98;98777.09;1718075;82;21151;-74
2021/08/13 04:35:04;;;;;;;;;;;;;;;12.35;85.33;98776.00;1738982;81;20227;-74
2021/08/13 04:37:30;;;;;;;;;;;;;;;12.38;85.16;98774.89;1738902;81;20305;-74
2021/08/13 04:39:56;;;;;;;;;;;;;;;12.44;85.21;98777.08;1739144;82;20162;-75
2021/08/13 04:42:21;;;;;;;;;;;;;;;12.39;85.38;98772.98;1739222;81;20229;-79
2021/08/13 04:44:47;;;;;;;;;;;;;;;12.45;85.17;98786.05;1739156;81;21107;-79
2021/08/13 04:47:13;;;;;;;;;;;;;;;12.49;85.73;98780.34;1738916;81;20283;-79
2021/08/13 04:49:39;;;;;;;;;;;;;;;12.59;86.08;98781.69;1738875;81;20194;-74
2021/08/13 04:52:05;;;;;;;;;;;;;;;12.69;86.12;98783.84;1738979;81;20210;-74
2021/08/13 04:54:31;;;;;;;;;;;;;;;12.82;85.60;98781.63;1738803;81;20179;-79
2021/08/13 04:56:58;;;;;;;;;;;;;;;12.90;85.67;98777.83;1737144;82;21821;-79
2021/08/13 04:59:24;;;;;;;;;;;;;;;12.98;84.91;98784.03;1733903;81;20136;-75
2021/08/13 05:01:50;;;;;;;;;;;;;;;12.98;84.90;98784.03;1730956;83;20498;-76
2021/08/13 05:04:17;;;;;;;;;;;;;;;13.04;84.85;98778.59;1730681;82;20411;-80
2021/08/13 05:06:43;;;;;;;;;;;;;;;13.10;84.68;98788.37;1730942;83;20136;-75
2021/08/13 05:09:09;;;;;;;;;;;;;;;13.15;84.65;98785.06;1730673;82;21730;-81
2021/08/13 05:11:35;;;;;;;;;;;;;;;13.21;84.94;98794.88;1730805;83;20152;-80
2021/08/13 05:14:01;;;;;;;;;;;;;;;13.30;84.34;98788.31;1730646;82;20198;-80
2021/08/13 05:16:27;;;;;;;;;;;;;;;13.36;83.91;98788.56;1730863;82;20610;-75
2021/08/13 05:18:52;;;;;;;;;;;;;;;13.41;83.89;98793.16;1710293;83;20163;-75
2021/08/13 05:21:18;;;;;;;;;;;;;;;13.49;84.44;98797.47;1730991;82;21832;-75
2021/08/13 05:23:44;;;;;;;;;;;;;;;13.64;84.32;98800.67;1730600;83;20140;-81
2021/08/13 05:26:10;;;;;;;;;;;;;;;13.85;82.66;98799.21;1730593;82;20217;-80
2021/08/13 05:28:36;;;;;;;;;;;;;;;13.99;82.30;98798.28;1730660;82;20241;-75
2021/08/13 05:31:01;;;;;;;;;;;;;;;14.18;81.96;98803.05;1731053;82;20289;-76
2021/08/13 05:33:27;;;;;;;;;;;;;;;14.29;82.00;98799.17;1730820;82;21935;-75
2021/08/13 05:35:53;;;;;;;;;;;;;;;14.49;81.44;98803.11;1730972;82;20297;-81
2021/08/13 05:38:18;;;;;;;;;;;;;;;14.66;80.87;98804.05;1730873;82;20169;-81
2021/08/13 05:40:44;;;;;;;;;;;;;;;14.74;80.39;98799.88;1731140;82;20194;-75
2021/08/13 05:43:10;;;;;;;;;;;;;;;14.91;80.69;98799.70;1711831;82;20209;-75
2021/08/13 05:45:36;;;;;;;;;;;;;;;15.11;79.69;98797.84;1738661;82;21083;-81
2021/08/13 05:48:01;;;;;;;;;;;;;;;15.18;79.08;98801.86;1730889;82;20202;-75
2021/08/13 05:50:27;;;;;;;;;;;;;;;15.26;79.02;98803.69;1731036;83;20205;-81
2021/08/13 05:52:55;;;;;;;;;;;;;;;15.34;78.57;98797.59;1730328;83;20222;-75
2021/08/13 05:55:20;;;;;;;;;;;;;;;15.45;78.05;98794.42;1730943;83;20476;-76
2021/08/13 05:57:46;;;;;;;;;;;;;;;15.55;79.51;98790.75;1741909;82;20680;-81
2021/08/13 06:00:12;;;;;;;;;;;;;;;15.75;79.87;98786.98;1739158;81;20197;-75
2021/08/13 06:02:39;;;;;;;;;;;;;;;15.96;79.57;98788.30;1739044;82;20140;-75
2021/08/13 06:05:06;;;;;;;;;;;;;;;16.15;78.38;98786.09;1716623;82;20552;-81
2021/08/13 06:07:32;;;;;;;;;;;;;;;16.30;78.44;98786.67;1739131;81;20131;-81
2021/08/13 06:09:58;;;;;;;;;;;;;;;16.49;77.34;98785.81;1738814;81;21819;-81
2021/08/13 06:12:24;;;;;;;;;;;;;;;16.57;77.43;98783.20;1739040;81;20237;-79
2021/08/13 06:14:49;;;;;;;;;;;;;;;16.69;76.36;98782.77;1738832;81;20197;-79
2021/08/13 06:17:15;;;;;;;;;;;;;;;16.74;77.13;98783.22;1739042;81;20134;-76
2021/08/13 06:19:41;;;;;;;;;;;;;;;16.84;77.03;98783.06;1738911;81;20178;-77
2021/08/13 06:22:07;;;;;;;;;;;;;;;16.95;76.85;98791.32;1739183;81;21088;-80
2021/08/13 06:24:32;;;;;;;;;;;;;;;17.10;76.83;98790.23;1738748;81;20209;-80
2021/08/13 06:26:58;;;;;;;;;;;;;;;17.08;75.86;98790.50;1739154;81;20217;-76
2021/08/13 06:29:24;;;;;;;;;;;;;;;17.27;75.85;98788.25;1738890;82;20403;-80
2021/08/13 06:31:50;;;;;;;;;;;;;;;17.37;75.80;98791.59;1739068;81;20293;-77
2021/08/13 06:34:19;;;;;;;;;;;;;;;17.50;75.52;98789.94;1738906;82;21089;-80
2021/08/13 06:36:45;;;;;;;;;;;;;;;17.60;74.77;98786.98;1739012;81;20100;-79
2021/08/13 06:39:11;;;;;;;;;;;;;;;17.79;75.33;98782.78;1738928;81;20182;-79
2021/08/13 06:41:37;;;;;;;;;;;;;;;17.99;74.86;98782.87;1739306;82;20202;-76
2021/08/13 06:44:03;;;;;;;;;;;;;;;18.14;74.08;98777.03;1718014;82;20095;-78
2021/08/13 06:46:29;;;;;;;;;;;;;;;18.33;73.77;98771.35;1739051;81;21042;-76
2021/08/13 06:48:55;;;;;;;;;;;;;;;18.48;73.61;98768.80;1738898;81;20305;-76
2021/08/13 06:51:21;;;;;;;;;;;;;;;18.67;72.70;98772.16;1739130;82;20702;-76
2021/08/13 06:53:46;;;;;;;;;;;;;;;18.93;73.24;98756.38;1738944;81;20166;-78
2021/08/13 06:56:12;;;;;;;;;;;;;;;19.26;69.91;98758.20;1738115;81;20241;-76
2021/08/13 06:58:38;;;;;;;;;;;;;;;19.49;69.69;98762.48;1731095;82;21180;-79
2021/08/13 07:01:04;;;;;;;;;;;;;;;19.69;71.00;98756.95;1730970;82;20236;-79
2021/08/13 07:03:29;;;;;;;;;;;;;;;19.87;71.83;98757.77;1730778;82;20229;-76
2021/08/13 07:05:55;;;;;;;;;;;;;;;20.05;69.08;98758.02;1731427;82;20162;-80
2021/08/13 07:08:21;;;;;;;;;;;;;;;19.99;68.78;98753.80;1730887;82;20170;-79
2021/08/13 07:10:47;;;;;;;;;;;;;;;20.08;67.28;98752.42;1730813;82;21150;-76
2021/08/13 07:13:12;;;;;;;;;;;;;;;20.35;67.21;98753.47;1730753;82;20253;-76
2021/08/13 07:15:38;;;;;;;;;;;;;;;20.82;65.79;98752.16;1730938;82;20206;-76
2021/08/13 07:18:04;;;;;;;;;;;;;;;21.23;63.66;98750.13;1730786;83;20147;-79
2021/08/13 07:20:29;;;;;;;;;;;;;;;21.76;62.22;98740.98;1731111;82;20226;-79
2021/08/13 07:22:55;;;;;;;;;;;;;;;22.20;59.91;98743.08;1730992;82;21158;-76
2021/08/13 07:25:21;;;;;;;;;;;;;;;22.55;60.00;98733.06;1730774;82;20218;-80
2021/08/13 07:27:47;;;;;;;;;;;;;;;22.93;57.90;98738.94;1730876;82;20182;-80
2021/08/13 07:30:13;;;;;;;;;;;;;;;23.53;59.93;98740.09;1730856;82;20214;-79
2021/08/13 07:32:38;;;;;;;;;;;;;;;23.73;55.51;98739.15;1730620;83;20139;-77
2021/08/13 07:35:05;;;;;;;;;;;;;;;23.75;52.21;98734.64;1730706;82;21791;-80
2021/08/13 07:37:31;;;;;;;;;;;;;;;24.20;52.24;98734.41;1730752;82;20323;-80
2021/08/13 07:39:57;;;;;;;;;;;;;;;24.73;51.63;98738.65;1730857;82;20245;-78
2021/08/13 07:42:26;;;;;;;;;;;;;;;25.01;52.23;98735.80;1730728;83;20202;-80
2021/08/13 07:44:50;;;;;;;;;;;;;;;25.60;55.37;98740.41;1730514;82;20134;-77
2021/08/13 07:47:16;;;;;;;;;;;;;;;25.78;53.58;98736.67;1731092;83;21037;-81
2021/08/13 07:49:42;;;;;;;;;;;;;;;25.69;46.93;98733.85;1730872;82;20139;-81
2021/08/13 07:52:08;;;;;;;;;;;;;;;25.96;47.25;98728.72;1730914;82;20182;-78
2021/08/13 07:54:33;;;;;;;;;;;;;;;26.46;44.46;98728.95;1730854;82;20479;-81
2021/08/13 07:56:59;;;;;;;;;;;;;;;26.18;45.95;98729.17;1734294;82;20194;-78
2021/08/13 07:59:25;;;;;;;;;;;;;;;26.10;46.11;98727.64;1716887;82;21232;-81
2021/08/13 08:01:51;;;;;;;;;;;;;;;26.34;48.61;98731.29;1743390;82;20189;-81
2021/08/13 08:04:16;;;;;;;;;;;;;;;26.47;50.03;98734.73;1738829;81;20225;-79
2021/08/13 08:06:42;;;;;;;;;;;;;;;26.85;47.69;98738.02;1739749;81;20142;-81
2021/08/13 08:09:08;;;;;;;;;;;;;;;26.61;47.47;98730.84;1738960;82;20229;-80
2021/08/13 08:11:34;;;;;;;;;;;;;;;26.74;48.21;98734.23;1739046;81;21214;-82
2021/08/13 08:13:59;;;;;;;;;;;;;;;26.78;49.61;98728.97;1738777;81;20209;-81
2021/08/13 08:16:25;;;;;;;;;;;;;;;27.43;47.07;98733.62;1739070;81;20272;-80
2021/08/13 08:18:51;;;;;;;;;;;;;;;28.25;45.12;98735.57;1739004;81;20134;-80
2021/08/13 08:21:17;;;;;;;;;;;;;;;28.57;44.04;98735.16;1738985;81;20205;-76
2021/08/13 08:23:42;;;;;;;;;;;;;;;29.34;45.10;98733.50;1738792;81;21005;-80
2021/08/13 08:26:08;;;;;;;;;;;;;;;29.70;41.33;98738.15;1738914;81;20205;-80
2021/08/13 08:28:34;;;;;;;;;;;;;;;30.22;42.70;98737.44;1738852;81;20257;-77
2021/08/13 08:31:00;;;;;;;;;;;;;;;31.16;43.11;98733.05;1739125;81;20462;-77
2021/08/13 08:33:25;;;;;;;;;;;;;;;31.68;40.52;98735.41;1738828;82;20198;-80
2021/08/13 08:35:51;;;;;;;;;;;;;;;31.38;39.49;98730.28;1738822;81;21140;-80
2021/08/13 08:38:17;;;;;;;;;;;;;;;31.98;39.25;98731.57;1739280;81;20209;-80
2021/08/13 08:40:43;;;;;;;;;;;;;;;31.91;36.37;98732.98;1738853;81;20728;-81
2021/08/13 08:43:09;;;;;;;;;;;;;;;32.32;36.45;98731.06;1738834;82;20169;-79
2021/08/13 08:45:38;;;;;;;;;;;;;;;33.08;34.79;98732.20;1738856;81;20407;-80
2021/08/13 08:48:06;;;;;;;;;;;;;;;33.44;34.53;98733.33;1738916;81;21943;-83
2021/08/13 08:50:34;;;;;;;;;;;;;;;33.64;33.05;98729.48;1738267;82;20442;-80
2021/08/13 08:53:02;;;;;;;;;;;;;;;33.96;32.86;98736.81;1738894;81;20617;-80
2021/08/13 08:55:28;;;;;;;;;;;;;;;34.09;31.27;98729.41;1738751;82;20168;-81
2021/08/13 08:57:54;;;;;;;;;;;;;;;33.99;32.16;98724.72;1734625;81;20737;-81
2021/08/13 09:00:20;;;;;;;;;;;;;;;33.61;30.54;98724.72;1730735;83;21761;-83
2021/08/13 09:02:46;;;;;;;;;;;;;;;33.66;31.03;98724.85;1730726;82;20193;-82
2021/08/13 09:05:12;;;;;;;;;;;;;;;33.90;29.64;98725.22;1730757;82;20281;-83
2021/08/13 09:07:38;;;;;;;;;;;;;;;33.76;30.56;98723.17;1731030;82;20182;-83
2021/08/13 09:10:05;;;;;;;;;;;;;;;34.31;30.88;98725.73;1730911;83;20160;-83
2021/08/13 09:12:34;;;;;;;;;;;;;;;35.13;27.24;98719.55;1730975;83;21009;-82
2021/08/13 09:15:00;;;;;;;;;;;;;;;35.28;26.62;98723.08;1730668;83;20163;-80
2021/08/13 09:17:30;;;;;;;;;;;;;;;35.13;28.48;98728.80;1731553;82;20233;-81
2021/08/13 09:19:55;;;;;;;;;;;;;;;35.34;27.05;98724.20;1710190;83;20164;-81
2021/08/13 09:22:21;;;;;;;;;;;;;;;35.38;27.13;98727.55;1731162;82;20148;-81
2021/08/13 09:24:52;;;;;;;;;;;;;;;35.93;26.49;98733.24;1730773;83;21835;-81
2021/08/13 09:27:21;;;;;;;;;;;;;;;35.10;25.15;98737.28;1730591;83;20264;-82
2021/08/13 09:30:07;;;;;;;;;;;;;;;34.74;25.21;98736.41;1730394;82;20575;-80
2021/08/13 09:32:33;;;;;;;;;;;;;;;35.79;26.01;98735.69;1731086;82;20469;-81
2021/08/13 09:34:59;;;;;;;;;;;;;;;37.09;24.41;98736.75;1730919;82;20165;-81
2021/08/13 09:37:25;;;;;;;;;;;;;;;36.70;25.34;98731.41;1730934;83;21730;-78
2021/08/13 09:39:54;;;;;;;;;;;;;;;37.26;26.57;98736.92;1730820;82;20198;-81
2021/08/13 09:42:20;;;;;;;;;;;;;;;37.69;24.97;98733.83;1710377;83;20424;-79
2021/08/13 09:45:00;;;;;;;;;;;;;;;35.80;25.92;98723.97;1730585;82;20135;-78
2021/08/13 09:47:40;;;;;;;;;;;;;;;34.26;28.16;98731.02;1712300;83;20141;-82
2021/08/13 09:50:06;;;;;;;;;;;;;;;33.27;28.58;98724.61;1731142;82;21057;-79
2021/08/13 09:52:33;;;;;;;;;;;;;;;32.51;31.38;98722.14;1731025;83;20161;-79
2021/08/13 09:55:13;;;;;;;;;;;;;;;33.25;30.90;98718.63;1730839;83;20167;-79
2021/08/13 09:57:44;;;;;;;;;;;;;;;32.11;32.44;98717.89;1730707;82;20169;-82
2021/08/13 10:00:10;;;;;;;;;;;;;;;30.86;35.57;98713.06;1740740;82;20163;-79
2021/08/13 10:02:38;;;;;;;;;;;;;;;30.48;35.75;98715.95;1739090;82;20992;-82
2021/08/13 10:05:23;;;;;;;;;;;;;;;29.81;36.54;98720.65;1738881;81;20180;-81
2021/08/13 10:07:52;;;;;;;;;;;;;;;29.44;36.49;98723.00;1739034;82;20160;-77
2021/08/13 10:10:35;;;;;;;;;;;;;;;28.75;39.28;98721.41;1738831;81;20458;-78
2021/08/13 10:13:02;;;;;;;;;;;;;;;28.31;40.06;98723.53;1738859;81;20199;-80
2021/08/13 10:15:35;;;;;;;;;;;;;;;28.14;40.82;98722.70;1738826;82;21237;-77
2021/08/13 10:18:07;;;;;;;;;;;;;;;29.64;38.26;98720.75;1738867;81;20427;-81
2021/08/13 10:20:35;;;;;;;;;;;;;;;29.02;38.85;98723.47;1737787;81;20115;-77
2021/08/13 10:23:01;;;;;;;;;;;;;;;29.07;38.85;98722.53;1738948;82;20175;-77
2021/08/13 10:25:27;;;;;;;;;;;;;;;29.46;37.68;98728.98;1718373;82;20154;-77
2021/08/13 10:27:55;;;;;;;;;;;;;;;29.06;40.15;98726.51;1739402;82;21132;-80
2021/08/13 10:30:22;;;;;;;;;;;;;;;28.91;40.18;98726.17;1738854;81;20203;-78
2021/08/13 10:32:48;;;;;;;;;;;;;;;28.77;38.96;98726.80;1738937;81;20160;-78
2021/08/13 10:35:13;;;;;;;;;;;;;;;28.30;40.25;98726.11;1738995;81;20217;-81
2021/08/13 10:37:39;;;;;;;;;;;;;;;28.47;40.67;98720.53;1739149;82;20218;-82
2021/08/13 10:40:09;;;;;;;;;;;;;;;29.42;38.88;98726.18;1738955;82;21092;-79
2021/08/13 10:42:36;;;;;;;;;;;;;;;29.59;38.15;98721.14;1738869;82;20185;-82
2021/08/13 10:45:10;;;;;;;;;;;;;;;29.83;38.08;98719.09;1738859;82;20206;-82
2021/08/13 10:47:39;;;;;;;;;;;;;;;29.68;37.41;98715.41;1738954;81;20132;-82
2021/08/13 10:50:06;;;;;;;;;;;;;;;29.59;37.45;98720.54;1738459;82;20148;-82
2021/08/13 10:52:37;;;;;;;;;;;;;;;29.56;35.75;98721.30;1738919;82;21050;-79
2021/08/13 10:55:04;;;;;;;;;;;;;;;29.31;36.52;98721.13;1738092;82;20209;-82
2021/08/13 10:57:51;;;;;;;;;;;;;;;28.66;36.23;98715.55;1737849;81;20470;-79
2021/08/13 11:00:19;;;;;;;;;;;;;;;28.74;37.16;98710.05;1730852;83;20149;-78
2021/08/13 11:03:21;;;;;;;;;;;;;;;28.84;37.65;98704.56;1730952;82;20160;-78
2021/08/13 11:05:58;;;;;;;;;;;;;;;29.06;37.91;98703.39;1730057;82;21081;-78
2021/08/13 11:08:34;;;;;;;;;;;;;;;29.12;37.98;98705.41;1731118;82;20123;-80
2021/08/13 11:10:59;;;;;;;;;;;;;;;28.97;37.89;98695.36;1723089;82;20427;-78
2021/08/13 11:13:26;;;;;;;;;;;;;;;29.14;38.44;98692.47;1730578;83;20225;-78
2021/08/13 11:15:52;;;;;;;;;;;;;;;29.49;37.66;98698.34;1730691;82;20411;-78
2021/08/13 11:18:32;;;;;;;;;;;;;;;29.91;37.06;98705.36;1730773;82;21909;-81
2021/08/13 11:20:59;;;;;;;;;;;;;;;29.95;37.48;98702.57;1730683;83;20411;-79
2021/08/13 11:23:25;;;;;;;;;;;;;;;29.86;37.47;98696.55;1730757;82;20419;-82
2021/08/13 11:25:52;;;;;;;;;;;;;;;29.85;37.46;98699.14;1730633;83;20539;-79
2021/08/13 11:28:28;;;;;;;;;;;;;;;29.72;37.51;98696.66;1730754;82;20152;-79
2021/08/13 11:30:56;;;;;;;;;;;;;;;29.63;37.42;98694.02;1730694;82;21118;-79
2021/08/13 11:33:32;;;;;;;;;;;;;;;29.67;38.55;98697.05;1730684;82;20080;-82
2021/08/13 11:35:58;;;;;;;;;;;;;;;29.61;38.46;98698.61;1730860;83;20160;-81
2021/08/13 11:38:46;;;;;;;;;;;;;;;29.60;37.40;98701.80;1730931;82;20162;-82
2021/08/13 11:41:24;;;;;;;;;;;;;;;29.60;37.81;98698.41;1730785;83;20159;-78
2021/08/13 11:43:51;;;;;;;;;;;;;;;29.35;38.37;98691.23;1731196;82;21267;-78
2021/08/13 11:46:26;;;;;;;;;;;;;;;29.30;38.81;98685.21;1730533;82;20132;-81
2021/08/13 11:48:54;;;;;;;;;;;;;;;29.30;38.11;98688.80;1730797;83;20195;-81
2021/08/13 11:51:19;;;;;;;;;;;;;;;29.31;38.17;98683.45;1729851;82;20390;-78
2021/08/13 11:53:45;;;;;;;;;;;;;;;29.33;38.62;98683.86;1730684;82;20187;-81
2021/08/13 11:56:25;;;;;;;;;;;;;;;29.32;38.16;98681.46;1730687;82;20760;-82
2021/08/13 11:59:06;;;;;;;;;;;;;;;29.32;38.91;98680.86;1730803;82;20148;-78
2021/08/13 12:01:51;;;;;;;;;;;;;;;29.07;37.30;98679.88;1730628;82;20179;-78
2021/08/13 12:04:22;;;;;;;;;;;;;;;29.08;38.26;98676.70;1730657;82;20152;-81
2021/08/13 12:07:05;;;;;;;;;;;;;;;28.99;39.54;98671.25;1730042;83;20160;-78
2021/08/13 12:09:40;;;;;;;;;;;;;;;29.14;38.17;98677.95;1730568;83;21847;-82
2021/08/13 12:12:07;;;;;;;;;;;;;;;28.98;37.72;98671.84;1739352;82;20176;-78
2021/08/13 12:14:34;;;;;;;;;;;;;;;28.86;38.17;98670.70;1730683;83;20384;-81
2021/08/13 12:16:59;;;;;;;;;;;;;;;28.89;37.61;98661.59;1730522;83;20164;-82
2021/08/13 12:19:25;;;;;;;;;;;;;;;29.16;36.82;98661.62;1730588;82;20647;-78
2021/08/13 12:21:59;;;;;;;;;;;;;;;28.97;37.11;98663.84;1730507;83;21904;-78
2021/08/13 12:24:32;;;;;;;;;;;;;;;28.84;38.39;98660.53;1730632;83;20400;-82
2021/08/13 12:26:59;;;;;;;;;;;;;;;28.81;37.24;98653.75;1730540;83;20140;-81
2021/08/13 12:29:26;;;;;;;;;;;;;;;28.58;37.86;98648.37;1730560;83;20164;-81
2021/08/13 12:31:55;;;;;;;;;;;;;;;28.84;38.28;98650.78;1730666;83;20411;-81
2021/08/13 12:34:24;;;;;;;;;;;;;;;30.06;37.55;98642.73;1729807;83;21200;-82
2021/08/13 12:37:10;;;;;;;;;;;;;;;32.07;33.34;98646.27;1730670;82;20135;-82
2021/08/13 12:39:38;;;;;;;;;;;;;;;33.70;31.58;98636.33;1730520;82;20167;-79
2021/08/13 12:42:04;;;;;;;;;;;;;;;34.99;28.67;98635.50;1730598;83;20160;-79
2021/08/13 12:44:31;;;;;;;;;;;;;;;36.66;27.75;98638.36;1730734;83;20182;-79
2021/08/13 12:46:59;;;;;;;;;;;;;;;37.17;27.11;98639.30;1710012;83;21148;-82
2021/08/13 12:49:24;;;;;;;;;;;;;;;37.72;25.17;98633.97;1710081;83;20423;-80